createdAt,value
2023-08-03T00:00:29.712Z,65.17944336
2023-08-03T00:01:31.707Z,65.24658203
2023-08-03T00:02:33.010Z,65.04516602
2023-08-03T00:03:34.469Z,65.14892578
2023-08-03T00:04:35.452Z,65.14892578
2023-08-03T00:05:36.514Z,65.14892578
2023-08-03T00:06:38.727Z,65.04516602
2023-08-03T00:07:40.719Z,65.04516602
2023-08-03T00:08:41.968Z,65.14892578
2023-08-03T00:09:43.970Z,65.04516602
2023-08-03T00:10:45.782Z,65.17944336
2023-08-03T00:12:17.387Z,64.88037109
2023-08-03T00:13:19.053Z,64.97802734
2023-08-03T00:14:20.424Z,64.88037109
2023-08-03T00:15:21.564Z,65.07568359
2023-08-03T00:16:22.770Z,65.17944336
2023-08-03T00:17:24.952Z,65.38085938
2023-08-03T00:18:26.070Z,64.97802734
2023-08-03T00:19:27.223Z,65.17944336
2023-08-03T00:20:29.230Z,64.77661133
2023-08-03T00:21:30.429Z,64.77661133
2023-08-03T00:22:31.602Z,64.47753906
2023-08-03T00:23:32.917Z,64.47753906
2023-08-03T00:24:34.209Z,64.47753906
2023-08-03T00:25:35.527Z,64.27612305
2023-08-03T00:26:36.762Z,64.3737793
2023-08-03T00:27:38.735Z,64.47753906
2023-08-03T00:28:39.909Z,64.47753906
2023-08-03T00:29:41.644Z,64.40429688
2023-08-03T00:30:42.728Z,64.60571289
2023-08-03T00:31:45.127Z,64.3737793
2023-08-03T00:33:16.741Z,64.60571289
2023-08-03T00:34:17.880Z,64.70947266
2023-08-03T00:35:19.033Z,64.80712891
2023-08-03T00:36:20.042Z,64.80712891
2023-08-03T00:37:22.271Z,64.91088867
2023-08-03T00:38:23.519Z,64.91088867
2023-08-03T00:39:24.736Z,64.91088867
2023-08-03T00:40:25.869Z,64.91088867
2023-08-03T00:41:26.946Z,64.91088867
2023-08-03T00:42:28.066Z,65.00854492
2023-08-03T00:43:30.148Z,64.91088867
2023-08-03T00:44:31.458Z,64.70947266
2023-08-03T00:45:32.612Z,64.50805664
2023-08-03T00:46:33.713Z,64.50805664
2023-08-03T00:47:35.626Z,64.40429688
2023-08-03T00:48:36.748Z,63.90380859
2023-08-03T00:49:38.735Z,63.40332031
2023-08-03T00:50:39.957Z,63.10424805
2023-08-03T00:51:41.383Z,63.63525391
2023-08-03T00:52:42.117Z,63.23242188
2023-08-03T00:53:43.084Z,62.82958984
2023-08-03T00:54:44.478Z,62.82958984
2023-08-03T00:56:16.356Z,62.93334961
2023-08-03T00:57:18.120Z,62.73193359
2023-08-03T00:58:20.073Z,62.62817383
2023-08-03T00:59:21.180Z,62.53051758
2023-08-03T01:00:22.348Z,62.42675781
2023-08-03T01:01:24.209Z,62.23144531
2023-08-03T01:02:25.450Z,62.0300293
2023-08-03T01:03:26.829Z,62.23144531
2023-08-03T01:04:27.889Z,62.12768555
2023-08-03T01:05:28.944Z,62.23144531
2023-08-03T01:06:30.144Z,61.92626953
2023-08-03T01:07:31.967Z,62.0300293
2023-08-03T01:08:33.708Z,61.92626953
2023-08-03T01:09:35.732Z,61.62719727
2023-08-03T01:10:37.662Z,61.62719727
2023-08-03T01:11:38.692Z,61.5234375
2023-08-03T01:12:39.916Z,61.328125
2023-08-03T01:13:41.669Z,61.328125
2023-08-03T01:14:43.004Z,61.22436523
2023-08-03T01:15:44.785Z,61.328125
2023-08-03T01:17:17.136Z,61.42578125
2023-08-03T01:18:18.366Z,61.42578125
2023-08-03T01:19:19.442Z,61.62719727
2023-08-03T01:20:21.042Z,61.22436523
2023-08-03T01:21:22.073Z,61.328125
2023-08-03T01:22:23.181Z,61.22436523
2023-08-03T01:23:25.167Z,61.22436523
2023-08-03T01:24:26.337Z,61.42578125
2023-08-03T01:25:28.251Z,61.42578125
2023-08-03T01:26:29.368Z,61.42578125
2023-08-03T01:27:31.149Z,61.5234375
2023-08-03T01:28:33.072Z,61.62719727
2023-08-03T01:29:34.198Z,61.62719727
2023-08-03T01:30:35.507Z,61.72485352
2023-08-03T01:31:37.162Z,61.75537109
2023-08-03T01:32:38.719Z,61.72485352
2023-08-03T01:33:39.786Z,61.65771484
2023-08-03T01:34:40.994Z,61.82861328
2023-08-03T01:35:42.697Z,61.72485352
2023-08-03T01:36:44.569Z,61.72485352
2023-08-03T01:38:17.279Z,61.72485352
2023-08-03T01:39:19.062Z,61.72485352
2023-08-03T01:40:20.077Z,61.82861328
2023-08-03T01:41:21.046Z,62.0300293
2023-08-03T01:42:22.195Z,61.95678711
2023-08-03T01:43:24.121Z,62.0300293
2023-08-03T01:44:25.249Z,61.92626953
2023-08-03T01:45:26.320Z,61.92626953
2023-08-03T01:46:27.468Z,61.72485352
2023-08-03T01:47:29.062Z,61.62719727
2023-08-03T01:48:30.145Z,61.5234375
2023-08-03T01:49:32.138Z,61.12670898
2023-08-03T01:50:33.406Z,61.5234375
2023-08-03T01:51:34.364Z,61.12670898
2023-08-03T01:52:36.101Z,61.12670898
2023-08-03T01:53:38.117Z,61.12670898
2023-08-03T01:54:39.196Z,61.328125
2023-08-03T01:55:40.335Z,61.42578125
2023-08-03T01:56:41.308Z,61.42578125
2023-08-03T01:57:43.076Z,61.328125
2023-08-03T01:58:44.878Z,61.328125
2023-08-03T02:00:17.244Z,61.5234375
2023-08-03T02:01:19.243Z,61.5234375
2023-08-03T02:02:20.256Z,61.62719727
2023-08-03T02:03:21.358Z,61.62719727
2023-08-03T02:04:22.619Z,61.62719727
2023-08-03T02:05:24.212Z,61.72485352
2023-08-03T02:06:25.392Z,61.72485352
2023-08-03T02:07:26.483Z,61.72485352
2023-08-03T02:08:28.116Z,61.82861328
2023-08-03T02:09:30.111Z,61.72485352
2023-08-03T02:10:31.145Z,61.82861328
2023-08-03T02:11:32.237Z,61.92626953
2023-08-03T02:12:33.337Z,62.0300293
2023-08-03T02:13:35.159Z,62.12768555
2023-08-03T02:14:36.254Z,62.0300293
2023-08-03T02:15:37.274Z,62.25585938
2023-08-03T02:16:38.385Z,62.25585938
2023-08-03T02:17:40.119Z,62.35961914
2023-08-03T02:18:42.137Z,62.32910156
2023-08-03T02:19:43.268Z,62.45727539
2023-08-03T02:20:44.663Z,62.65869141
2023-08-03T02:22:16.122Z,62.35961914
2023-08-03T02:23:17.173Z,62.56103516
2023-08-03T02:24:18.270Z,62.65869141
2023-08-03T02:25:19.454Z,62.65869141
2023-08-03T02:26:20.557Z,62.1887207
2023-08-03T02:27:22.229Z,62.39013672
2023-08-03T02:28:24.122Z,62.1887207
2023-08-03T02:29:26.143Z,62.39013672
2023-08-03T02:30:27.348Z,62.48779297
2023-08-03T02:31:29.170Z,62.39013672
2023-08-03T02:32:30.353Z,62.39013672
2023-08-03T02:33:31.496Z,62.48779297
2023-08-03T02:34:32.544Z,62.28637695
2023-08-03T02:35:33.736Z,62.39013672
2023-08-03T02:36:34.854Z,62.1887207
2023-08-03T02:37:36.008Z,61.98730469
2023-08-03T02:38:37.596Z,61.98730469
2023-08-03T02:39:39.550Z,62.28637695
2023-08-03T02:40:40.550Z,62.28637695
2023-08-03T02:41:41.769Z,62.08496094
2023-08-03T02:42:42.891Z,61.78588867
2023-08-03T02:44:15.583Z,61.78588867
2023-08-03T02:45:16.654Z,61.08398438
2023-08-03T02:46:17.805Z,61.08398438
2023-08-03T02:47:18.912Z,60.91308594
2023-08-03T02:48:20.654Z,61.01074219
2023-08-03T02:49:21.971Z,61.11450195
2023-08-03T02:50:23.060Z,61.2121582
2023-08-03T02:51:24.226Z,61.11450195
2023-08-03T02:52:25.265Z,61.2121582
2023-08-03T02:53:26.486Z,61.2121582
2023-08-03T02:54:27.718Z,61.51123047
2023-08-03T02:55:28.937Z,61.61499023
2023-08-03T02:56:30.062Z,61.30981445
2023-08-03T02:57:31.624Z,61.51123047
2023-08-03T02:58:33.687Z,61.41357422
2023-08-03T02:59:35.622Z,61.2121582
2023-08-03T03:00:36.818Z,60.91308594
2023-08-03T03:01:38.840Z,60.80932617
2023-08-03T03:02:39.938Z,60.60791016
2023-08-03T03:03:41.110Z,60.71166992
2023-08-03T03:04:42.222Z,60.60791016
2023-08-03T03:05:43.481Z,60.51025391
2023-08-03T03:07:16.168Z,60.20507813
2023-08-03T03:08:18.080Z,60.43701172
2023-08-03T03:09:19.202Z,60.43701172
2023-08-03T03:10:20.405Z,60.40649414
2023-08-03T03:11:22.285Z,60.20507813
2023-08-03T03:12:23.565Z,59.90600586
2023-08-03T03:13:24.686Z,60.03417969
2023-08-03T03:14:25.704Z,60.2355957
2023-08-03T03:15:26.797Z,60.63842773
2023-08-03T03:16:28.018Z,60.33325195
2023-08-03T03:17:29.415Z,60.53466797
2023-08-03T03:18:31.207Z,60.43701172
2023-08-03T03:19:32.378Z,60.33325195
2023-08-03T03:20:33.495Z,60.03417969
2023-08-03T03:21:34.558Z,59.73510742
2023-08-03T03:22:35.841Z,60.03417969
2023-08-03T03:23:37.026Z,59.93652344
2023-08-03T03:24:38.224Z,59.93652344
2023-08-03T03:25:39.344Z,60.03417969
2023-08-03T03:26:40.402Z,60.03417969
2023-08-03T03:27:41.669Z,59.63134766
2023-08-03T03:28:44.198Z,59.53369141
2023-08-03T03:30:16.053Z,59.73510742
2023-08-03T03:31:18.160Z,59.73510742
2023-08-03T03:32:19.393Z,59.73510742
2023-08-03T03:33:20.634Z,59.83276367
2023-08-03T03:34:21.794Z,59.63134766
2023-08-03T03:35:22.981Z,59.63134766
2023-08-03T03:36:24.188Z,59.53369141
2023-08-03T03:37:26.134Z,59.63134766
2023-08-03T03:38:28.139Z,59.53369141
2023-08-03T03:39:29.271Z,59.42993164
2023-08-03T03:40:30.471Z,59.33227539
2023-08-03T03:41:32.344Z,59.42993164
2023-08-03T03:42:33.572Z,59.13085938
2023-08-03T03:43:34.729Z,59.02709961
2023-08-03T03:44:36.696Z,58.72802734
2023-08-03T03:45:38.008Z,58.92944336
2023-08-03T03:46:39.215Z,59.02709961
2023-08-03T03:47:40.580Z,59.13085938
2023-08-03T03:48:42.698Z,58.92944336
2023-08-03T03:49:44.602Z,59.22851563
2023-08-03T03:51:17.343Z,59.02709961
2023-08-03T03:52:18.624Z,59.22851563
2023-08-03T03:53:19.915Z,58.82568359
2023-08-03T03:54:21.700Z,58.42285156
2023-08-03T03:55:22.714Z,58.32519531
2023-08-03T03:56:23.831Z,58.42285156
2023-08-03T03:57:25.035Z,58.32519531
2023-08-03T03:58:27.280Z,58.62426758
2023-08-03T03:59:28.535Z,58.62426758
2023-08-03T04:00:29.713Z,58.42285156
2023-08-03T04:01:31.684Z,58.32519531
2023-08-03T04:02:32.790Z,58.3984375
2023-08-03T04:03:34.062Z,58.29467773
2023-08-03T04:04:35.331Z,58.29467773
2023-08-03T04:05:36.546Z,58.29467773
2023-08-03T04:06:37.819Z,58.29467773
2023-08-03T04:07:38.870Z,58.72802734
2023-08-03T04:08:40.715Z,58.72802734
2023-08-03T04:09:41.876Z,58.92944336
2023-08-03T04:10:43.086Z,59.22851563
2023-08-03T04:12:15.795Z,59.55810547
2023-08-03T04:13:16.921Z,59.66186523
2023-08-03T04:14:18.674Z,59.66186523
2023-08-03T04:15:19.895Z,59.66186523
2023-08-03T04:16:21.133Z,59.66186523
2023-08-03T04:17:22.358Z,59.46044922
2023-08-03T04:18:23.491Z,59.42993164
2023-08-03T04:19:25.117Z,59.22851563
2023-08-03T04:20:26.217Z,59.13085938
2023-08-03T04:21:27.474Z,58.82568359
2023-08-03T04:22:28.692Z,58.82568359
2023-08-03T04:23:29.979Z,58.72802734
2023-08-03T04:24:31.178Z,58.62426758
2023-08-03T04:25:32.317Z,58.59985352
2023-08-03T04:26:33.449Z,58.69750977
2023-08-03T04:27:34.618Z,58.59985352
2023-08-03T04:28:36.665Z,58.49609375
2023-08-03T04:29:37.981Z,58.49609375
2023-08-03T04:30:39.644Z,58.49609375
2023-08-03T04:31:41.815Z,58.3984375
2023-08-03T04:32:42.900Z,58.29467773
2023-08-03T04:33:44.883Z,58.3984375
2023-08-03T04:35:16.698Z,57.89794922
2023-08-03T04:36:17.891Z,58.09326172
2023-08-03T04:37:19.037Z,58.52661133
2023-08-03T04:38:20.159Z,58.42285156
2023-08-03T04:39:22.260Z,58.52661133
2023-08-03T04:40:23.441Z,58.72802734
2023-08-03T04:41:25.199Z,58.72802734
2023-08-03T04:42:26.438Z,58.62426758
2023-08-03T04:43:27.558Z,58.72802734
2023-08-03T04:44:28.649Z,58.62426758
2023-08-03T04:45:29.827Z,58.62426758
2023-08-03T04:46:31.076Z,58.42285156
2023-08-03T04:47:32.273Z,58.42285156
2023-08-03T04:48:33.423Z,58.52661133
2023-08-03T04:49:35.172Z,58.62426758
2023-08-03T04:50:36.349Z,58.72802734
2023-08-03T04:51:37.619Z,58.72802734
2023-08-03T04:52:38.861Z,58.72802734
2023-08-03T04:53:40.021Z,58.42285156
2023-08-03T04:54:41.088Z,58.52661133
2023-08-03T04:55:42.201Z,58.62426758
2023-08-03T04:56:44.190Z,58.92944336
2023-08-03T04:58:16.058Z,58.82568359
2023-08-03T04:59:17.820Z,58.82568359
2023-08-03T05:00:22.613Z,58.72802734
2023-08-03T05:01:21.701Z,58.62426758
2023-08-03T05:02:22.928Z,58.52661133
2023-08-03T05:03:24.052Z,58.52661133
2023-08-03T05:04:25.288Z,58.62426758
2023-08-03T05:05:26.395Z,58.52661133
2023-08-03T05:06:27.664Z,58.72802734
2023-08-03T05:07:29.829Z,58.72802734
2023-08-03T05:08:31.046Z,58.72802734
2023-08-03T05:09:32.723Z,59.02709961
2023-08-03T05:10:33.896Z,59.02709961
2023-08-03T05:11:35.634Z,59.02709961
2023-08-03T05:12:36.706Z,58.72802734
2023-08-03T05:13:37.735Z,58.92944336
2023-08-03T05:14:38.809Z,59.02709961
2023-08-03T05:15:39.902Z,59.13085938
2023-08-03T05:16:41.056Z,59.13085938
2023-08-03T05:17:42.181Z,59.33227539
2023-08-03T05:18:43.211Z,59.22851563
2023-08-03T05:20:15.800Z,59.42993164
2023-08-03T05:21:16.881Z,59.53369141
2023-08-03T05:22:18.009Z,59.33227539
2023-08-03T05:23:19.144Z,59.53369141
2023-08-03T05:24:20.322Z,59.63134766
2023-08-03T05:25:21.390Z,59.83276367
2023-08-03T05:26:22.481Z,59.73510742
2023-08-03T05:27:23.579Z,59.80224609
2023-08-03T05:28:25.660Z,59.80224609
2023-08-03T05:29:27.623Z,59.83276367
2023-08-03T05:30:28.739Z,60.03417969
2023-08-03T05:31:30.773Z,60.03417969
2023-08-03T05:32:31.881Z,60.03417969
2023-08-03T05:33:33.053Z,60.33325195
2023-08-03T05:34:34.058Z,60.43701172
2023-08-03T05:35:35.227Z,60.43701172
2023-08-03T05:36:36.336Z,60.43701172
2023-08-03T05:37:38.281Z,60.53466797
2023-08-03T05:38:39.528Z,60.83984375
2023-08-03T05:39:41.206Z,60.73608398
2023-08-03T05:40:42.247Z,59.93652344
2023-08-03T05:42:14.995Z,59.90600586
2023-08-03T05:43:16.193Z,59.90600586
2023-08-03T05:44:18.317Z,59.40551758
2023-08-03T05:45:19.459Z,59.40551758
2023-08-03T05:46:22.822Z,59.20410156
2023-08-03T05:47:21.832Z,59.1003418
2023-08-03T05:48:23.001Z,58.97216797
2023-08-03T05:49:24.653Z,59.27124023
2023-08-03T05:50:25.734Z,59.17358398
2023-08-03T05:51:27.009Z,58.97216797
2023-08-03T05:52:28.040Z,59.07592773
2023-08-03T05:53:30.133Z,59.375
2023-08-03T05:54:31.273Z,59.57641602
2023-08-03T05:55:32.345Z,59.47265625
2023-08-03T05:56:33.488Z,58.97216797
2023-08-03T05:57:34.609Z,59.07592773
2023-08-03T05:58:36.649Z,59.27124023
2023-08-03T05:59:38.711Z,58.87451172
2023-08-03T06:00:39.817Z,58.36791992
2023-08-03T06:01:41.831Z,57.76977539
2023-08-03T06:02:43.055Z,57.5378418
2023-08-03T06:04:15.049Z,57.33642578
2023-08-03T06:05:16.187Z,57.44018555
2023-08-03T06:06:17.564Z,57.13500977
2023-08-03T06:07:19.167Z,57.5378418
2023-08-03T06:08:21.061Z,57.64160156
2023-08-03T06:09:23.145Z,57.84301758
2023-08-03T06:10:24.867Z,57.84301758
2023-08-03T06:11:27.884Z,57.84301758
2023-08-03T06:12:29.190Z,58.03833008
2023-08-03T06:13:30.540Z,58.03833008
2023-08-03T06:14:31.854Z,57.84301758
2023-08-03T06:15:33.041Z,57.73925781
2023-08-03T06:16:34.778Z,57.73925781
2023-08-03T06:17:36.043Z,57.94067383
2023-08-03T06:18:37.175Z,58.14208984
2023-08-03T06:19:39.178Z,58.44116211
2023-08-03T06:20:40.448Z,58.03833008
2023-08-03T06:21:41.646Z,57.84301758
2023-08-03T06:22:42.785Z,58.14208984
2023-08-03T06:24:15.062Z,57.94067383
2023-08-03T06:25:16.159Z,58.14208984
2023-08-03T06:26:17.389Z,58.23974609
2023-08-03T06:27:18.514Z,57.44018555
2023-08-03T06:28:20.663Z,57.64160156
2023-08-03T06:29:21.880Z,57.94067383
2023-08-03T06:30:23.617Z,57.84301758
2023-08-03T06:31:25.778Z,57.73925781
2023-08-03T06:32:26.830Z,57.44018555
2023-08-03T06:33:27.903Z,57.64160156
2023-08-03T06:34:29.064Z,57.73925781
2023-08-03T06:35:30.207Z,57.23876953
2023-08-03T06:36:31.292Z,57.44018555
2023-08-03T06:37:32.401Z,57.03735352
2023-08-03T06:38:33.537Z,56.90917969
2023-08-03T06:39:35.152Z,56.90917969
2023-08-03T06:40:37.201Z,56.90917969
2023-08-03T06:41:38.271Z,56.70776367
2023-08-03T06:42:39.457Z,56.61010742
2023-08-03T06:43:41.631Z,56.70776367
2023-08-03T06:44:43.170Z,57.51342773
2023-08-03T06:46:15.840Z,58.61816406
2023-08-03T06:47:16.802Z,57.91015625
2023-08-03T06:48:17.760Z,57.20825195
2023-08-03T06:49:18.775Z,57.31201172
2023-08-03T06:50:20.610Z,57.88574219
2023-08-03T06:51:22.663Z,57.18383789
2023-08-03T06:52:23.662Z,56.98242188
2023-08-03T06:53:24.734Z,56.68334961
2023-08-03T06:54:25.783Z,56.68334961
2023-08-03T06:55:26.866Z,56.68334961
2023-08-03T06:56:28.655Z,56.68334961
2023-08-03T06:57:30.641Z,57.28149414
2023-08-03T06:58:32.649Z,57.18383789
2023-08-03T06:59:33.674Z,57.78808594
2023-08-03T07:00:35.665Z,57.28149414
2023-08-03T07:01:36.650Z,56.98242188
2023-08-03T07:02:37.825Z,56.78100586
2023-08-03T07:03:39.801Z,56.88476563
2023-08-03T07:04:40.732Z,56.78100586
2023-08-03T07:05:41.787Z,56.85424805
2023-08-03T07:07:13.810Z,56.55517578
2023-08-03T07:08:14.936Z,56.95800781
2023-08-03T07:09:16.689Z,56.25610352
2023-08-03T07:10:18.664Z,56.25610352
2023-08-03T07:11:19.618Z,56.35375977
2023-08-03T07:12:21.141Z,55.95092773
2023-08-03T07:13:22.137Z,56.25610352
2023-08-03T07:14:23.146Z,56.35375977
2023-08-03T07:15:24.192Z,56.85424805
2023-08-03T07:16:26.236Z,56.25610352
2023-08-03T07:17:27.146Z,56.65283203
2023-08-03T07:18:28.301Z,56.7565918
2023-08-03T07:19:30.166Z,55.65185547
2023-08-03T07:20:32.140Z,55.55419922
2023-08-03T07:21:33.191Z,55.3527832
2023-08-03T07:22:34.240Z,55.24902344
2023-08-03T07:23:36.190Z,55.15136719
2023-08-03T07:24:39.018Z,54.94995117
2023-08-03T07:25:38.216Z,55.04760742
2023-08-03T07:26:39.211Z,55.65185547
2023-08-03T07:27:40.286Z,55.24902344
2023-08-03T07:28:42.605Z,55.15136719
2023-08-03T07:30:15.635Z,55.24902344
2023-08-03T07:31:17.135Z,54.65087891
2023-08-03T07:32:18.134Z,55.15136719
2023-08-03T07:33:19.357Z,55.65185547
2023-08-03T07:34:20.647Z,55.45043945
2023-08-03T07:35:21.696Z,55.65185547
2023-08-03T07:36:22.743Z,55.74951172
2023-08-03T07:37:23.770Z,55.74951172
2023-08-03T07:38:24.802Z,55.65185547
2023-08-03T07:39:25.991Z,55.95092773
2023-08-03T07:40:27.767Z,56.0546875
2023-08-03T07:41:29.784Z,55.74951172
2023-08-03T07:42:30.911Z,55.85327148
2023-08-03T07:43:32.682Z,56.25610352
2023-08-03T07:46:36.180Z,55.85327148
2023-08-03T07:47:37.340Z,56.0546875
2023-08-03T07:48:38.452Z,55.92651367
2023-08-03T07:49:39.531Z,55.72509766
2023-08-03T07:50:41.182Z,55.32226563
2023-08-03T07:51:42.812Z,55.62744141
2023-08-03T07:53:14.872Z,55.62744141
2023-08-03T07:54:16.032Z,55.52368164
2023-08-03T07:55:17.116Z,55.52368164
2023-08-03T07:56:18.092Z,56.02416992
2023-08-03T07:57:19.269Z,56.42700195
2023-08-03T07:58:21.200Z,56.22558594
2023-08-03T07:59:22.345Z,56.5246582
2023-08-03T08:00:24.277Z,56.3293457
2023-08-03T08:01:26.231Z,56.42700195
2023-08-03T08:02:27.168Z,56.12792969
2023-08-03T08:03:28.249Z,55.65185547
2023-08-03T08:04:29.361Z,55.95092773
2023-08-03T08:05:30.547Z,56.45141602
2023-08-03T08:06:31.579Z,56.25610352
2023-08-03T08:07:34.051Z,56.45141602
2023-08-03T08:08:33.641Z,56.42700195
2023-08-03T08:09:34.739Z,56.22558594
2023-08-03T08:10:36.691Z,56.62841797
2023-08-03T08:11:37.842Z,56.62841797
2023-08-03T08:12:39.643Z,56.3293457
2023-08-03T08:13:40.660Z,56.22558594
2023-08-03T08:14:41.706Z,56.62841797
2023-08-03T08:16:13.877Z,56.3293457
2023-08-03T08:17:14.984Z,56.82983398
2023-08-03T08:18:16.117Z,56.62841797
2023-08-03T08:19:17.141Z,56.3293457
2023-08-03T08:20:18.203Z,56.12792969
2023-08-03T08:21:20.793Z,56.42700195
2023-08-03T08:22:21.910Z,55.92651367
2023-08-03T08:23:23.043Z,55.52368164
2023-08-03T08:24:24.707Z,54.72412109
2023-08-03T08:25:26.047Z,54.72412109
2023-08-03T08:26:27.264Z,54.82177734
2023-08-03T08:27:28.548Z,55.12695313
2023-08-03T08:28:35.217Z,56.12792969
2023-08-03T08:29:31.491Z,55.62744141
2023-08-03T08:30:33.246Z,55.92651367
2023-08-03T08:32:36.383Z,55.72509766
2023-08-03T08:33:37.785Z,55.72509766
2023-08-03T08:34:39.184Z,55.22460938
2023-08-03T08:35:40.534Z,55.52368164
2023-08-03T08:36:42.338Z,54.0222168
2023-08-03T08:38:14.617Z,54.22363281
2023-08-03T08:39:15.880Z,54.32128906
2023-08-03T08:40:17.266Z,54.32128906
2023-08-03T08:41:19.445Z,54.296875
2023-08-03T08:42:20.807Z,54.49829102
2023-08-03T08:43:22.911Z,54.59594727
2023-08-03T08:44:24.856Z,54.296875
2023-08-03T08:45:26.109Z,54.296875
2023-08-03T08:46:27.529Z,54.19921875
2023-08-03T08:47:28.923Z,54.77294922
2023-08-03T08:50:33.320Z,53.96728516
2023-08-03T08:53:15.086Z,52.77099609
2023-08-03T09:00:16.793Z,53.44238281
2023-08-03T09:01:18.876Z,53.94287109
2023-08-03T09:02:20.772Z,53.54614258
2023-08-03T09:03:22.268Z,53.54614258
2023-08-03T09:06:26.136Z,53.74145508
2023-08-03T09:07:27.391Z,53.96728516
2023-08-03T09:08:28.798Z,53.96728516
2023-08-03T09:09:29.982Z,54.37011719
2023-08-03T09:10:31.245Z,54.27246094
2023-08-03T09:11:33.600Z,54.27246094
2023-08-03T09:12:34.684Z,54.27246094
2023-08-03T09:13:36.919Z,53.77197266
2023-08-03T09:14:38.349Z,53.96728516
2023-08-03T09:15:39.893Z,54.37011719
2023-08-03T09:16:41.867Z,54.5715332
2023-08-03T09:18:14.033Z,54.87060547
2023-08-03T09:19:15.766Z,54.66918945
2023-08-03T09:23:21.723Z,54.07104492
2023-08-03T09:25:39.185Z,53.66821289
2023-08-03T09:29:30.535Z,52.66723633
2023-08-03T09:31:33.403Z,52.74047852
2023-08-03T09:32:34.638Z,52.14233398
2023-08-03T09:33:35.951Z,52.23999023
2023-08-03T09:36:39.737Z,50.84228516
2023-08-03T09:40:15.312Z,51.01928711
2023-08-03T09:41:17.234Z,50.81787109
2023-08-03T09:44:22.066Z,51.34277344
2023-08-03T09:46:24.661Z,51.01928711
2023-08-03T09:47:28.781Z,51.41601563
2023-08-03T09:48:26.903Z,51.31835938
2023-08-03T09:49:28.141Z,51.41601563
2023-08-03T09:50:29.457Z,51.81884766
2023-08-03T09:51:31.494Z,51.71508789
2023-08-03T09:53:34.931Z,51.01928711
2023-08-03T09:55:06.864Z,51.01928711
2023-08-03T09:55:37.402Z,50.93994141
2023-08-03T09:56:38.743Z,51.24511719
2023-08-03T09:57:41.364Z,51.04370117
2023-08-03T09:59:13.844Z,50.84228516
2023-08-03T10:00:15.122Z,51.04370117
2023-08-03T10:01:17.305Z,51.04370117
2023-08-03T10:02:23.983Z,51.34277344
2023-08-03T10:03:20.249Z,50.91552734
2023-08-03T10:04:21.972Z,49.91455078
2023-08-03T10:05:23.120Z,50.01831055
2023-08-03T10:06:24.378Z,50.1159668
2023-08-03T10:07:25.703Z,50.01831055
2023-08-03T10:08:26.912Z,49.71923828
2023-08-03T10:09:28.249Z,50.04272461
2023-08-03T10:10:29.471Z,50.64086914
2023-08-03T10:11:31.354Z,50.74462891
2023-08-03T10:12:32.555Z,50.64086914
2023-08-03T10:13:33.876Z,50.54321289
2023-08-03T10:14:35.947Z,50.74462891
2023-08-03T10:15:38.511Z,51.01928711
2023-08-03T10:16:38.690Z,51.11694336
2023-08-03T10:17:39.912Z,50.74462891
2023-08-03T10:19:12.104Z,50.93994141
2023-08-03T10:20:13.693Z,51.44042969
2023-08-03T10:21:15.815Z,51.94091797
2023-08-03T10:22:17.115Z,51.84326172
2023-08-03T10:23:19.280Z,52.23999023
2023-08-03T10:24:21.297Z,52.34375
2023-08-03T10:25:22.694Z,52.74047852
2023-08-03T10:26:24.096Z,53.44238281
2023-08-03T10:27:26.261Z,53.64379883
2023-08-03T10:28:27.960Z,54.14428711
2023-08-03T10:29:29.219Z,53.91845703
2023-08-03T10:30:30.375Z,53.61938477
2023-08-03T10:31:32.425Z,53.82080078
2023-08-03T10:32:34.468Z,53.11889648
2023-08-03T10:33:35.727Z,52.6184082
2023-08-03T10:34:37.748Z,52.21557617
2023-08-03T10:35:39.012Z,52.52075195
2023-08-03T10:36:42.072Z,53.21655273
2023-08-03T10:38:12.375Z,53.515625
2023-08-03T10:39:13.901Z,53.515625
2023-08-03T10:40:15.343Z,53.61938477
2023-08-03T10:41:16.624Z,53.61938477
2023-08-03T10:42:18.258Z,53.41796875
2023-08-03T10:43:19.514Z,52.71606445
2023-08-03T10:44:21.444Z,53.02124023
2023-08-03T10:45:22.722Z,52.21557617
2023-08-03T10:46:23.904Z,52.21557617
2023-08-03T10:47:25.378Z,51.81884766
2023-08-03T10:48:26.321Z,52.02026367
2023-08-03T10:49:27.533Z,51.91650391
2023-08-03T10:50:29.787Z,52.11791992
2023-08-03T10:51:31.749Z,52.11791992
2023-08-03T10:52:32.849Z,52.81982422
2023-08-03T10:53:33.927Z,52.91748047
2023-08-03T10:54:35.155Z,52.6184082
2023-08-03T10:55:37.301Z,52.71606445
2023-08-03T10:56:38.573Z,52.41699219
2023-08-03T10:57:39.860Z,52.52075195
2023-08-03T10:59:12.261Z,53.02124023
2023-08-03T11:00:13.732Z,53.11889648
2023-08-03T11:01:15.863Z,52.81982422
2023-08-03T11:02:17.813Z,52.6184082
2023-08-03T11:03:19.167Z,53.3203125
2023-08-03T11:04:20.948Z,52.21557617
2023-08-03T11:05:22.015Z,51.91650391
2023-08-03T11:06:23.271Z,52.02026367
2023-08-03T11:07:24.556Z,52.02026367
2023-08-03T11:08:25.591Z,51.91650391
2023-08-03T11:09:26.678Z,52.21557617
2023-08-03T11:10:27.902Z,52.02026367
2023-08-03T11:11:29.213Z,52.41699219
2023-08-03T11:12:31.861Z,52.71606445
2023-08-03T11:13:33.299Z,53.02124023
2023-08-03T11:14:35.543Z,52.21557617
2023-08-03T11:15:36.875Z,52.02026367
2023-08-03T11:16:38.182Z,52.02026367
2023-08-03T11:17:39.426Z,51.81884766
2023-08-03T11:19:11.535Z,52.31933594
2023-08-03T11:20:13.056Z,52.6184082
2023-08-03T11:21:13.977Z,52.59399414
2023-08-03T11:22:15.839Z,52.99072266
2023-08-03T11:23:17.031Z,52.09350586
2023-08-03T11:24:18.921Z,51.89208984
2023-08-03T11:25:20.812Z,52.69165039
2023-08-03T11:26:21.998Z,51.99584961
2023-08-03T11:27:23.098Z,51.49536133
2023-08-03T11:28:25.238Z,51.3671875
2023-08-03T11:29:26.424Z,51.3671875
2023-08-03T11:30:27.709Z,51.19628906
2023-08-03T11:31:29.956Z,50.69580078
2023-08-03T11:32:31.935Z,50.69580078
2023-08-03T11:33:33.030Z,51.19628906
2023-08-03T11:34:34.892Z,51.29394531
2023-08-03T11:35:36.152Z,51.79443359
2023-08-03T11:36:37.476Z,50.49438477
2023-08-03T11:37:38.809Z,51.19628906
2023-08-03T11:39:10.880Z,51.59301758
2023-08-03T11:40:12.145Z,51.97143555
2023-08-03T11:41:15.687Z,52.16674805
2023-08-03T11:42:15.792Z,52.0690918
2023-08-03T11:43:17.064Z,51.86767578
2023-08-03T11:44:18.861Z,52.14233398
2023-08-03T11:45:19.925Z,51.84326172
2023-08-03T11:46:21.310Z,51.24511719
2023-08-03T11:47:22.549Z,50.24414063
2023-08-03T11:48:23.890Z,50.26855469
2023-08-03T11:49:26.022Z,50.37231445
2023-08-03T11:50:26.985Z,50.4699707
2023-08-03T11:51:28.319Z,50.56762695
2023-08-03T11:52:29.657Z,51.26953125